createdAt,value
2019-04-04T00:02:13.905Z,0.80
2019-04-04T00:04:48.426Z,0.80
2019-04-04T00:07:17.847Z,0.80
2019-04-04T00:10:00.140Z,0.70
2019-04-04T00:12:21.067Z,0.70
2019-04-04T00:14:50.990Z,0.70
2019-04-04T00:17:35.255Z,0.80
2019-04-04T00:20:02.098Z,0.80
2019-04-04T00:22:27.283Z,0.90
2019-04-04T00:24:59.110Z,0.90
2019-04-04T00:27:31.861Z,1.00
2019-04-04T00:30:03.040Z,1.00
2019-04-04T00:32:34.491Z,1.00
2019-04-04T00:35:07.091Z,1.10
2019-04-04T00:37:55.933Z,1.10
2019-04-04T00:40:15.817Z,1.10
2019-04-04T00:42:50.130Z,1.10
2019-04-04T00:45:33.099Z,1.10
2019-04-04T00:47:55.703Z,1.10
2019-04-04T00:50:25.830Z,1.10
2019-04-04T00:52:57.887Z,1.10
2019-04-04T00:55:28.002Z,1.10
2019-04-04T00:57:57.856Z,1.10
2019-04-04T01:00:27.899Z,1.10
2019-04-04T01:03:03.084Z,1.10
2019-04-04T01:05:33.214Z,1.10
2019-04-04T01:08:07.010Z,1.20
2019-04-04T01:10:40.529Z,1.30
2019-04-04T01:13:21.246Z,1.40
2019-04-04T01:15:52.580Z,1.50
2019-04-04T01:18:22.497Z,1.50
2019-04-04T01:20:52.582Z,1.60
2019-04-04T01:23:30.256Z,1.70
2019-04-04T01:26:05.169Z,1.80
2019-04-04T01:28:35.026Z,1.80
2019-04-04T01:31:06.682Z,1.90
2019-04-04T01:33:41.595Z,1.90
2019-04-04T01:36:16.042Z,1.90
2019-04-04T01:38:52.895Z,2.00
2019-04-04T01:41:22.863Z,1.90
2019-04-04T01:44:04.793Z,1.80
2019-04-04T01:46:33.032Z,1.90
2019-04-04T01:49:03.155Z,1.90
2019-04-04T01:51:35.892Z,1.80
2019-04-04T01:54:18.135Z,1.80
2019-04-04T01:56:48.112Z,1.80
2019-04-04T01:59:18.045Z,1.90
2019-04-04T02:02:37.849Z,1.90
2019-04-04T02:04:27.096Z,2.00
2019-04-04T02:06:59.149Z,2.10
2019-04-04T02:09:29.989Z,2.10
2019-04-04T02:12:07.469Z,2.10
2019-04-04T02:14:49.380Z,2.10
2019-04-04T02:17:22.321Z,2.00
2019-04-04T02:19:55.629Z,2.10
2019-04-04T02:22:36.943Z,2.10
2019-04-04T02:25:08.590Z,2.10
2019-04-04T02:27:38.604Z,2.10
2019-04-04T02:30:14.535Z,2.10
2019-04-04T02:32:53.516Z,2.10
2019-04-04T02:35:26.664Z,2.00
2019-04-04T02:38:08.576Z,1.90
2019-04-04T02:40:42.135Z,1.70
2019-04-04T02:43:12.515Z,1.60
2019-04-04T02:45:45.109Z,1.50
2019-04-04T02:48:23.811Z,1.40
2019-04-04T02:51:08.284Z,1.30
2019-04-04T02:53:38.403Z,1.20
2019-04-04T02:56:09.946Z,1.10
2019-04-04T02:58:40.742Z,1.00
2019-04-04T03:01:14.863Z,0.90
2019-04-04T03:03:50.522Z,0.90
2019-04-04T03:06:34.218Z,0.90
2019-04-04T03:09:09.033Z,0.80
2019-04-04T03:11:37.577Z,0.70
2019-04-04T03:14:10.395Z,0.60
2019-04-04T03:16:56.390Z,0.60
2019-04-04T03:19:21.953Z,0.60
2019-04-04T03:21:55.834Z,0.60
2019-04-04T03:24:27.010Z,0.60
2019-04-04T03:26:57.152Z,0.60
2019-04-04T03:29:28.502Z,0.60
2019-04-04T03:32:04.485Z,0.60
2019-04-04T03:34:36.622Z,0.60
2019-04-04T03:37:12.299Z,0.60
2019-04-04T03:39:42.655Z,0.60
2019-04-04T03:42:18.367Z,0.60
2019-04-04T03:44:53.260Z,0.60
2019-04-04T03:47:24.227Z,0.60
2019-04-04T03:49:57.576Z,0.50
2019-04-04T03:52:27.255Z,0.50
2019-04-04T03:54:58.695Z,0.60
2019-04-04T03:57:37.689Z,0.60
2019-04-04T04:00:09.417Z,0.60
2019-04-04T04:02:42.550Z,0.60
2019-04-04T04:05:33.991Z,0.70
2019-04-04T04:08:21.011Z,0.70
2019-04-04T04:10:51.340Z,0.70
2019-04-04T04:13:30.829Z,0.80
2019-04-04T04:16:03.731Z,0.80
2019-04-04T04:18:40.122Z,0.80
2019-04-04T04:21:11.292Z,0.80
2019-04-04T04:23:41.361Z,0.80
2019-04-04T04:26:12.564Z,0.80
2019-04-04T04:29:00.569Z,0.90
2019-04-04T04:31:30.551Z,1.00
2019-04-04T04:34:09.192Z,1.10
2019-04-04T04:36:35.081Z,1.20
2019-04-04T04:39:10.412Z,1.20
2019-04-04T04:41:47.928Z,1.20
2019-04-04T04:44:20.227Z,1.20
2019-04-04T04:46:57.739Z,1.30
2019-04-04T04:49:29.518Z,1.30
2019-04-04T04:52:00.254Z,1.30
2019-04-04T04:54:30.472Z,1.30
2019-04-04T04:57:17.534Z,1.30
2019-04-04T04:59:44.369Z,1.40
2019-04-04T05:02:22.331Z,1.50
2019-04-04T05:04:50.577Z,1.50
2019-04-04T05:07:20.645Z,1.60
2019-04-04T05:09:53.224Z,1.70
2019-04-04T05:12:27.703Z,1.80
2019-04-04T05:15:03.644Z,1.90
2019-04-04T05:17:40.024Z,1.90
2019-04-04T05:20:11.557Z,1.90
2019-04-04T05:22:47.525Z,1.90
2019-04-04T05:25:18.964Z,2.00
2019-04-04T05:27:51.322Z,2.10
2019-04-04T05:30:21.654Z,2.20
2019-04-04T05:32:56.223Z,2.20
2019-04-04T05:35:25.672Z,2.10
2019-04-04T05:38:01.548Z,2.10
2019-04-04T05:40:41.658Z,2.10
2019-04-04T05:43:04.184Z,2.10
2019-04-04T05:45:34.965Z,2.10
2019-04-04T05:48:04.961Z,2.20
2019-04-04T05:50:35.212Z,2.30
2019-04-04T05:53:09.656Z,2.40
2019-04-04T05:55:41.760Z,2.40
2019-04-04T05:58:11.318Z,2.40
2019-04-04T06:00:49.499Z,2.50
2019-04-04T06:03:29.923Z,2.50
2019-04-04T06:06:01.027Z,2.50
2019-04-04T06:08:34.514Z,2.60
2019-04-04T06:11:09.578Z,2.60
2019-04-04T06:13:47.119Z,2.70
2019-04-04T06:16:21.026Z,2.70
2019-04-04T06:18:53.664Z,2.70
2019-04-04T06:21:25.608Z,2.80
2019-04-04T06:23:59.887Z,2.90
2019-04-04T06:28:11.911Z,3.00
2019-04-04T06:29:19.105Z,3.00
2019-04-04T06:32:00.485Z,3.20
2019-04-04T06:34:31.192Z,3.30
2019-04-04T06:37:10.178Z,3.40
2019-04-04T06:39:43.013Z,3.50
2019-04-04T06:42:13.005Z,3.40
2019-04-04T06:44:44.425Z,3.40
2019-04-04T06:47:23.166Z,3.40
2019-04-04T06:50:02.224Z,3.30
2019-04-04T06:52:40.744Z,3.20
2019-04-04T06:55:21.442Z,3.30
2019-04-04T06:57:51.501Z,3.30
2019-04-04T07:00:27.692Z,3.30
2019-04-04T07:03:03.786Z,3.30
2019-04-04T07:05:41.482Z,3.40
2019-04-04T07:08:14.835Z,3.30
2019-04-04T07:11:02.783Z,3.30
2019-04-04T07:13:41.764Z,3.40
2019-04-04T07:16:12.563Z,3.40
2019-04-04T07:18:55.260Z,3.40
2019-04-04T07:21:27.232Z,3.50
2019-04-04T07:24:02.911Z,3.50
2019-04-04T07:26:34.563Z,3.70
2019-04-04T07:29:09.603Z,3.70
2019-04-04T07:31:41.611Z,3.70
2019-04-04T07:34:17.223Z,3.70
2019-04-04T07:36:52.911Z,3.60
2019-04-04T07:39:32.853Z,3.60
2019-04-04T07:42:05.744Z,3.70
2019-04-04T07:44:35.685Z,3.70
2019-04-04T07:47:05.745Z,3.70
2019-04-04T07:50:10.572Z,4.20
2019-04-04T07:52:22.896Z,4.30
2019-04-04T07:54:53.035Z,4.50
2019-04-04T07:57:30.002Z,4.70
2019-04-04T08:00:02.133Z,4.80
2019-04-04T08:02:32.401Z,4.90
2019-04-04T08:05:13.053Z,5.20
2019-04-04T08:07:45.750Z,5.90
2019-04-04T08:10:20.913Z,6.20
2019-04-04T08:12:53.524Z,6.10
2019-04-04T08:15:36.022Z,5.90
2019-04-04T08:18:26.187Z,6.40
2019-04-04T08:21:05.707Z,6.60
2019-04-04T08:23:44.655Z,6.90
2019-04-04T08:26:22.457Z,7.30
2019-04-04T08:28:56.097Z,8.10
2019-04-04T08:31:32.472Z,8.50
2019-04-04T08:34:08.369Z,9.00
2019-04-04T08:36:49.036Z,8.60
2019-04-04T08:39:20.196Z,8.40
2019-04-04T08:41:58.852Z,8.10
2019-04-04T08:44:31.975Z,7.90
2019-04-04T08:47:01.960Z,7.70
2019-04-04T08:49:35.248Z,7.60
2019-04-04T08:52:16.519Z,7.30
2019-04-04T08:54:50.452Z,7.10
2019-04-04T08:57:20.460Z,7.00
2019-04-04T09:00:00.346Z,7.00
2019-04-04T09:02:30.743Z,7.10
2019-04-04T09:05:11.962Z,7.40
2019-04-04T09:07:35.840Z,7.60
2019-04-04T09:10:19.392Z,7.60
2019-04-04T09:12:52.163Z,7.70
2019-04-04T09:15:22.264Z,8.00
2019-04-04T09:18:01.665Z,8.10
2019-04-04T09:20:37.884Z,8.00
2019-04-04T09:23:08.272Z,7.80
2019-04-04T09:25:43.188Z,7.60
2019-04-04T09:28:19.148Z,7.40
2019-04-04T09:31:02.213Z,7.20
2019-04-04T09:33:29.960Z,6.90
2019-04-04T09:36:07.799Z,6.60
2019-04-04T09:38:36.217Z,6.50
2019-04-04T09:41:06.282Z,6.20
2019-04-04T09:43:40.503Z,6.00
2019-04-04T09:46:16.468Z,6.00
2019-04-04T09:48:53.775Z,6.00
2019-04-04T09:51:32.356Z,6.00
2019-04-04T09:54:05.095Z,6.00
2019-04-04T09:56:38.332Z,6.00
2019-04-04T09:59:11.353Z,6.00
2019-04-04T10:01:48.950Z,5.90
2019-04-04T10:04:22.340Z,5.90
2019-04-04T10:06:57.427Z,5.90
2019-04-04T10:09:33.084Z,5.90
2019-04-04T10:12:03.117Z,6.60
2019-04-04T10:14:36.153Z,7.20
2019-04-04T10:17:14.835Z,7.60
2019-04-04T10:19:42.933Z,7.80
2019-04-04T10:22:27.247Z,7.80
2019-04-04T10:24:54.483Z,7.80
2019-04-04T10:27:31.832Z,7.70
2019-04-04T10:30:11.164Z,7.60
2019-04-04T10:32:48.937Z,7.50
2019-04-04T10:35:18.025Z,7.30
2019-04-04T10:38:00.454Z,7.40
2019-04-04T10:40:33.090Z,7.70
2019-04-04T10:43:11.971Z,7.90
2019-04-04T10:45:43.068Z,8.10
2019-04-04T10:48:23.442Z,8.00
2019-04-04T10:50:58.104Z,8.10
2019-04-04T10:53:31.478Z,8.00
2019-04-04T10:56:09.124Z,7.90
2019-04-04T10:58:43.864Z,8.20
2019-04-04T11:01:18.973Z,8.20
2019-04-04T11:03:57.014Z,8.10
2019-04-04T11:06:27.505Z,8.10
2019-04-04T11:09:02.164Z,8.10
2019-04-04T11:11:32.438Z,8.40
2019-04-04T11:14:02.506Z,8.50
2019-04-04T11:16:33.265Z,8.50
2019-04-04T11:19:09.625Z,8.10
2019-04-04T11:21:49.903Z,8.20
2019-04-04T11:24:22.994Z,8.50
2019-04-04T11:26:53.069Z,8.80
2019-04-04T11:29:25.962Z,9.20
2019-04-04T11:31:55.907Z,9.10
2019-04-04T11:34:27.376Z,8.90
2019-04-04T11:37:00.333Z,8.70
2019-04-04T11:39:40.022Z,8.70
2019-04-04T11:42:13.048Z,8.80
2019-04-04T11:44:45.727Z,9.10
2019-04-04T11:47:23.852Z,9.40
2019-04-04T11:50:04.710Z,9.50
2019-04-04T11:52:41.895Z,9.40
2019-04-04T11:55:23.322Z,8.90
2019-04-04T11:57:53.210Z,8.60
2019-04-04T12:00:50.862Z,8.80
2019-04-04T12:03:23.225Z,8.60
2019-04-04T12:05:57.281Z,8.30
2019-04-04T12:08:34.495Z,8.10
2019-04-04T12:11:12.764Z,8.10
2019-04-04T12:13:53.417Z,8.20
2019-04-04T12:16:37.710Z,8.10
2019-04-04T12:19:10.966Z,8.00
2019-04-04T12:21:42.064Z,8.00
2019-04-04T12:24:28.301Z,7.70
2019-04-04T12:26:54.891Z,7.80
2019-04-04T12:30:46.324Z,8.00
2019-04-04T12:32:06.345Z,8.20
2019-04-04T12:34:39.146Z,8.20
2019-04-04T12:37:11.218Z,8.20
2019-04-04T12:39:45.706Z,8.20
2019-04-04T12:42:20.148Z,8.20
2019-04-04T12:44:50.154Z,8.10
2019-04-04T12:47:27.308Z,8.10
2019-04-04T12:49:57.249Z,8.10
2019-04-04T12:52:36.898Z,8.10
2019-04-04T12:55:07.045Z,8.00
2019-04-04T12:57:37.500Z,8.00
2019-04-04T13:00:09.323Z,7.90
2019-04-04T13:02:47.560Z,7.70
2019-04-04T13:05:27.816Z,7.80
2019-04-04T13:08:03.116Z,7.80
2019-04-04T13:10:40.421Z,7.90
2019-04-04T13:13:11.842Z,8.30
2019-04-04T13:15:45.175Z,8.50
2019-04-04T13:18:16.244Z,8.80
2019-04-04T13:20:46.609Z,8.90
2019-04-04T13:23:20.247Z,8.80
2019-04-04T13:25:51.691Z,8.50
2019-04-04T13:28:24.264Z,8.40
2019-04-04T13:30:55.182Z,8.30
2019-04-04T13:33:29.291Z,8.30
2019-04-04T13:35:59.210Z,8.20
2019-04-04T13:38:32.571Z,8.20
2019-04-04T13:41:21.018Z,8.00
2019-04-04T13:43:44.245Z,8.00
2019-04-04T13:46:14.392Z,8.20
2019-04-04T13:48:54.182Z,8.30
2019-04-04T13:51:21.627Z,8.20
2019-04-04T13:53:53.117Z,8.20
2019-04-04T13:56:23.118Z,8.20
2019-04-04T13:58:58.976Z,8.20
2019-04-04T14:01:36.077Z,8.10
2019-04-04T14:04:15.007Z,8.20
2019-04-04T14:06:57.186Z,8.10
2019-04-04T14:09:26.225Z,8.20
2019-04-04T14:12:08.720Z,8.30
2019-04-04T14:15:03.691Z,8.60
2019-04-04T14:17:56.284Z,8.70
2019-04-04T14:20:35.572Z,8.90
2019-04-04T14:23:10.815Z,8.90
2019-04-04T14:25:40.821Z,9.00
2019-04-04T14:28:11.913Z,8.80
2019-04-04T14:30:41.725Z,8.70
2019-04-04T14:33:21.477Z,8.50
2019-04-04T14:36:00.880Z,8.50
2019-04-04T14:38:43.150Z,8.50
2019-04-04T14:41:19.093Z,8.60
2019-04-04T14:43:49.143Z,8.60
2019-04-04T14:46:26.544Z,8.60
2019-04-04T14:48:58.644Z,8.50
2019-04-04T14:51:30.984Z,8.40
2019-04-04T14:54:04.686Z,8.30
2019-04-04T14:56:34.504Z,8.30
2019-04-04T14:59:08.603Z,8.30
2019-04-04T15:01:38.670Z,8.30
2019-04-04T15:04:14.282Z,8.30
2019-04-04T15:06:49.567Z,8.20
2019-04-04T15:09:24.988Z,8.10
2019-04-04T15:11:55.054Z,8.10
2019-04-04T15:14:41.666Z,8.10
2019-04-04T15:17:12.901Z,8.10
2019-04-04T15:19:42.895Z,8.10
2019-04-04T15:22:12.832Z,8.10
2019-04-04T15:24:44.124Z,8.10
2019-04-04T15:27:27.324Z,8.10
2019-04-04T15:29:59.869Z,8.30
2019-04-04T15:32:40.232Z,8.20
2019-04-04T15:35:16.382Z,8.10
2019-04-04T15:38:02.350Z,8.00
2019-04-04T15:40:32.681Z,8.00
2019-04-04T15:43:10.212Z,8.10
2019-04-04T15:45:40.316Z,8.10
2019-04-04T15:48:10.177Z,8.10
2019-04-04T15:50:41.738Z,8.10
2019-04-04T15:53:12.487Z,8.10
2019-04-04T15:55:45.095Z,8.00
2019-04-04T15:58:15.856Z,8.00
2019-04-04T16:00:47.639Z,8.00
2019-04-04T16:03:48.914Z,8.10
2019-04-04T16:05:59.783Z,8.20
2019-04-04T16:08:29.743Z,8.40
2019-04-04T16:11:11.753Z,8.60
2019-04-04T16:13:35.455Z,8.60
2019-04-04T16:16:05.442Z,8.60
2019-04-04T16:18:47.696Z,8.40
2019-04-04T16:21:18.917Z,8.30
2019-04-04T16:24:08.615Z,8.30
2019-04-04T16:26:38.540Z,8.20
2019-04-04T16:29:10.653Z,8.20
2019-04-04T16:31:42.648Z,8.20
2019-04-04T16:34:19.597Z,8.10
2019-04-04T16:36:52.100Z,8.20
2019-04-04T16:39:22.109Z,8.20
2019-04-04T16:42:02.473Z,8.20
2019-04-04T16:44:51.458Z,8.20
2019-04-04T16:47:29.373Z,8.10
2019-04-04T16:50:00.371Z,8.10
2019-04-04T16:52:30.377Z,8.10
2019-04-04T16:55:00.213Z,8.00
2019-04-04T16:57:30.188Z,7.90
2019-04-04T17:00:01.970Z,7.90
2019-04-04T17:02:41.569Z,7.90
2019-04-04T17:05:14.219Z,7.80
2019-04-04T17:07:45.402Z,7.80
2019-04-04T17:10:32.843Z,7.40
2019-04-04T17:12:53.081Z,6.70
2019-04-04T17:15:23.012Z,6.40
2019-04-04T17:17:54.412Z,6.30
2019-04-04T17:20:24.309Z,6.10
2019-04-04T17:22:57.320Z,6.00
2019-04-04T17:25:31.798Z,6.00
2019-04-04T17:28:04.569Z,6.00
2019-04-04T17:30:34.569Z,6.10
2019-04-04T17:33:04.591Z,6.10
2019-04-04T17:35:34.924Z,6.10
2019-04-04T17:38:06.433Z,6.30
2019-04-04T17:40:46.627Z,6.50
2019-04-04T17:43:30.118Z,6.60
2019-04-04T17:46:06.294Z,6.50
2019-04-04T17:48:39.043Z,6.50
2019-04-04T17:51:14.560Z,6.50
2019-04-04T17:53:44.671Z,6.50
2019-04-04T17:56:14.651Z,6.50
2019-04-04T17:58:50.919Z,6.40
2019-04-04T18:01:27.183Z,6.50
2019-04-04T18:03:59.481Z,6.50
2019-04-04T18:06:33.582Z,6.50
2019-04-04T18:09:12.525Z,6.50
2019-04-04T18:11:44.712Z,6.40
2019-04-04T18:14:14.717Z,6.40
2019-04-04T18:16:46.235Z,6.50
2019-04-04T18:19:37.301Z,6.30
2019-04-04T18:21:59.654Z,6.20
2019-04-04T18:24:35.102Z,6.20
2019-04-04T18:27:07.589Z,6.10
2019-04-04T18:29:37.457Z,6.10
2019-04-04T18:32:07.366Z,6.00
2019-04-04T18:34:47.506Z,6.10
2019-04-04T18:37:22.295Z,6.10
2019-04-04T18:39:59.758Z,6.10
2019-04-04T18:42:29.738Z,6.20
2019-04-04T18:45:01.387Z,6.20
2019-04-04T18:47:39.048Z,6.20
2019-04-04T18:50:15.043Z,6.20
2019-04-04T18:52:50.447Z,6.30
2019-04-04T18:56:06.854Z,6.30
2019-04-04T18:57:56.225Z,6.30
2019-04-04T19:00:24.072Z,6.40
2019-04-04T19:02:58.095Z,6.40
2019-04-04T19:05:28.018Z,6.50
2019-04-04T19:07:58.817Z,6.60
2019-04-04T19:10:28.909Z,6.60
2019-04-04T19:13:06.000Z,6.60
2019-04-04T19:15:45.975Z,6.60
2019-04-04T19:18:25.178Z,6.60
2019-04-04T19:20:51.299Z,6.60
2019-04-04T19:23:21.218Z,6.60
2019-04-04T19:25:51.481Z,6.70
2019-04-04T19:28:24.395Z,6.70
2019-04-04T19:30:58.569Z,6.70
2019-04-04T19:33:29.077Z,6.70
2019-04-04T19:36:00.654Z,6.70
2019-04-04T19:38:51.489Z,6.70
2019-04-04T19:41:21.515Z,6.70
2019-04-04T19:43:54.000Z,6.80
2019-04-04T19:46:36.930Z,6.70
2019-04-04T19:49:05.545Z,6.80
2019-04-04T19:51:39.438Z,6.90
2019-04-04T19:54:09.429Z,6.80
2019-04-04T19:56:41.348Z,6.80
2019-04-04T19:59:22.770Z,6.90
2019-04-04T20:02:00.677Z,6.90
2019-04-04T20:04:31.778Z,6.90
2019-04-04T20:07:17.826Z,6.90
2019-04-04T20:09:54.112Z,6.90
2019-04-04T20:15:18.494Z,6.90
2019-04-04T20:17:57.429Z,6.90
2019-04-04T20:20:33.348Z,7.00
2019-04-04T20:23:10.668Z,7.00
2019-04-04T20:25:50.501Z,7.10
2019-04-04T20:28:55.518Z,7.20
2019-04-04T20:31:17.774Z,7.10
2019-04-04T20:34:06.434Z,7.00
2019-04-04T20:36:46.995Z,6.80
2019-04-04T20:39:20.277Z,6.60
2019-04-04T20:41:53.079Z,6.40
2019-04-04T20:44:25.837Z,6.30
2019-04-04T20:46:57.103Z,6.20
2019-04-04T20:49:32.727Z,6.20
2019-04-04T20:52:26.004Z,6.20
2019-04-04T20:54:56.158Z,6.10
2019-04-04T20:57:30.480Z,6.10
2019-04-04T21:00:04.369Z,6.00
2019-04-04T21:02:33.772Z,6.00
2019-04-04T21:05:11.441Z,5.90
2019-04-04T21:07:46.507Z,5.80
2019-04-04T21:10:23.077Z,5.70
2019-04-04T21:13:35.919Z,5.60
2019-04-04T21:15:33.427Z,5.70
2019-04-04T21:18:18.850Z,5.60
2019-04-04T21:20:48.240Z,5.60
2019-04-04T21:23:32.676Z,5.60
2019-04-04T21:25:55.933Z,5.50
2019-04-04T21:28:30.678Z,5.40
2019-04-04T21:31:00.983Z,5.30
2019-04-04T21:33:40.891Z,5.20
2019-04-04T21:36:16.068Z,5.30
2019-04-04T21:38:45.945Z,5.30
2019-04-04T21:41:16.006Z,5.30
2019-04-04T21:43:52.297Z,5.30
2019-04-04T21:46:31.912Z,5.30
2019-04-04T21:49:01.813Z,5.30
2019-04-04T21:51:42.292Z,5.40
2019-04-04T21:54:17.211Z,5.40
2019-04-04T21:56:56.053Z,5.40
2019-04-04T21:59:27.316Z,5.40
2019-04-04T22:01:58.229Z,5.40
2019-04-04T22:04:31.743Z,5.40
2019-04-04T22:07:06.178Z,5.40
2019-04-04T22:09:43.251Z,5.40
2019-04-04T22:12:13.583Z,5.40
2019-04-04T22:14:46.405Z,5.50
2019-04-04T22:17:16.558Z,5.50
2019-04-04T22:20:02.313Z,5.60
2019-04-04T22:22:19.670Z,5.70
2019-04-04T22:24:49.795Z,5.70
2019-04-04T22:27:35.509Z,5.70
2019-04-04T22:29:54.565Z,5.80
2019-04-04T22:32:24.657Z,5.90
2019-04-04T22:34:56.170Z,6.00
2019-04-04T22:37:26.250Z,6.20
2019-04-04T22:40:01.169Z,6.40
2019-04-04T22:42:30.367Z,6.40
2019-04-04T22:45:00.255Z,6.40
2019-04-04T23:12:11.627Z,6.50
2019-04-04T23:14:47.819Z,6.60
2019-04-04T23:17:16.197Z,6.60
2019-04-04T23:19:52.733Z,6.60
2019-04-04T23:22:27.724Z,6.60
2019-04-04T23:24:56.574Z,6.50
2019-04-04T23:27:31.725Z,6.60
2019-04-04T23:30:05.430Z,6.60
2019-04-04T23:32:35.471Z,6.60
2019-04-04T23:35:05.940Z,6.60
2019-04-04T23:37:37.821Z,6.50
2019-04-04T23:40:22.434Z,6.50
2019-04-04T23:42:59.274Z,6.40
2019-04-04T23:45:30.965Z,6.30
2019-04-04T23:48:12.970Z,6.30
2019-04-04T23:50:43.652Z,6.20
2019-04-04T23:53:16.426Z,6.10
2019-04-04T23:55:47.928Z,6.10
2019-04-04T23:58:18.101Z,5.90
